Time;durP1;ratioP1;P1;durP2;ratioP2;P2;SDS_P1;SDS_P2;PMS_P1;PMS_P2;Temp;Humidity;BMP_temperature;BMP_pressure;BME280_temperature;BME280_humidity;BME280_pressure;Samples;Min_cycle;Max_cycle;Signal;HPM_P1;HPM_P2
2024/02/18 00:01:17;;;;;;;7.07;5.57;;;9.30;85.50;;;10.99;59.13;99277.06;5030808;28;20048;-52
2024/02/18 00:03:45;;;;;;;10.17;5.83;;;9.30;85.80;;;10.99;58.86;99274.41;5030514;28;20042;-52
2024/02/18 00:06:13;;;;;;;9.43;6.03;;;9.20;86.70;;;10.98;59.07;99271.88;5012609;28;20057;-52
2024/02/18 00:08:40;;;;;;;9.90;6.33;;;9.20;85.70;;;10.98;59.36;99267.38;5030542;28;20045;-53
2024/02/18 00:11:08;;;;;;;8.87;5.63;;;9.20;85.90;;;10.99;58.92;99270.88;5028994;28;20045;-52
2024/02/18 00:13:36;;;;;;;9.57;6.77;;;9.20;85.50;;;10.98;59.18;99271.88;5030489;28;20085;-51
2024/02/18 00:16:04;;;;;;;8.53;5.80;;;9.20;85.50;;;10.96;59.04;99271.97;4996593;28;20045;-50
2024/02/18 00:18:32;;;;;;;8.83;5.70;;;9.20;85.70;;;10.97;58.81;99272.81;5030168;28;20430;-50
2024/02/18 00:20:59;;;;;;;9.13;5.63;;;9.20;85.60;;;10.96;59.03;99269.31;5030316;28;20041;-50
2024/02/18 00:23:27;;;;;;;9.23;6.10;;;9.20;85.80;;;10.94;59.02;99273.91;5029771;28;20045;-53
2024/02/18 00:25:55;;;;;;;10.57;5.50;;;9.10;85.90;;;10.91;59.33;99273.31;5030051;28;20050;-52
2024/02/18 00:28:23;;;;;;;6.77;5.67;;;9.10;86.00;;;10.90;59.40;99266.31;5012823;28;20068;-51
2024/02/18 00:30:51;;;;;;;8.17;6.10;;;9.10;86.20;;;10.91;59.50;99281.31;5012581;28;20041;-49
2024/02/18 00:33:19;;;;;;;8.77;5.43;;;9.10;86.20;;;10.88;59.33;99273.59;5012090;28;20049;-49
2024/02/18 00:35:47;;;;;;;8.90;5.90;;;9.00;86.70;;;10.89;58.98;99267.25;5012556;28;20051;-49
2024/02/18 00:38:14;;;;;;;6.80;5.43;;;9.10;86.50;;;10.87;59.13;99270.03;5029194;28;20521;-51
2024/02/18 00:40:42;;;;;;;9.93;5.63;;;9.00;86.10;;;10.85;59.34;99269.31;5030162;28;20041;-48
2024/02/18 00:43:10;;;;;;;9.33;5.97;;;9.00;86.70;;;10.83;59.40;99260.59;5030272;28;20052;-49
2024/02/18 00:45:37;;;;;;;7.37;5.50;;;9.00;86.40;;;10.82;59.11;99262.44;5030035;28;20056;-51
2024/02/18 00:48:05;;;;;;;7.67;5.73;;;9.00;86.20;;;10.78;59.62;99258.31;5011379;28;20061;-49
2024/02/18 00:50:33;;;;;;;8.80;6.53;;;8.90;86.60;;;10.76;59.27;99262.94;5030254;28;20048;-51
2024/02/18 00:53:01;;;;;;;11.07;4.97;;;8.90;87.30;;;10.76;59.45;99262.06;5022048;28;20045;-51
2024/02/18 00:55:28;;;;;;;8.27;5.80;;;8.90;87.60;;;10.74;59.39;99259.56;5030113;28;20052;-52
2024/02/18 00:57:56;;;;;;;7.27;5.63;;;8.80;87.50;;;10.74;59.46;99258.69;5028801;28;20525;-51
2024/02/18 01:00:24;;;;;;;6.70;5.23;;;8.90;87.60;;;10.75;59.68;99255.06;5030129;28;20044;-51
2024/02/18 01:02:52;;;;;;;7.80;7.00;;;8.90;87.30;;;10.76;59.61;99257.59;5030505;28;20038;-51
2024/02/18 01:05:19;;;;;;;9.17;5.27;;;8.90;87.10;;;10.75;59.61;99261.22;5033725;28;20049;-51
2024/02/18 01:07:47;;;;;;;7.37;4.93;;;9.00;87.10;;;10.76;59.72;99252.28;5033285;28;20057;-49
2024/02/18 01:10:15;;;;;;;6.07;4.70;;;9.00;87.00;;;10.77;59.52;99247.78;5033524;28;20041;-50
2024/02/18 01:12:42;;;;;;;7.70;5.37;;;9.00;86.80;;;10.79;59.74;99248.50;5032590;28;20046;-50
2024/02/18 01:15:10;;;;;;;9.63;6.00;;;9.00;86.60;;;10.82;59.72;99248.28;5033280;28;20052;-49
2024/02/18 01:17:37;;;;;;;10.20;5.93;;;9.10;86.50;;;10.84;59.70;99257.00;5032911;28;20045;-50
2024/02/18 01:20:06;;;;;;;9.17;5.77;;;9.10;86.30;;;10.82;59.55;99245.63;5033030;28;20506;-50
2024/02/18 01:22:34;;;;;;;8.73;5.40;;;9.10;86.30;;;10.83;59.82;99249.94;5033385;28;20490;-49
2024/02/18 01:25:03;;;;;;;18.67;7.17;;;9.10;86.40;;;10.83;59.26;99244.63;5025244;28;20044;-52
2024/02/18 01:27:31;;;;;;;8.67;6.33;;;9.10;86.20;;;10.81;59.32;99244.75;5032897;28;20048;-49
2024/02/18 01:29:58;;;;;;;8.57;6.60;;;9.10;86.30;;;10.80;59.62;99250.22;5033119;28;20068;-48
2024/02/18 01:32:26;;;;;;;15.00;7.77;;;9.10;86.30;;;10.79;59.23;99244.03;5032928;28;20056;-48
2024/02/18 01:34:55;;;;;;;9.43;7.47;;;9.00;86.30;;;10.76;59.45;99238.09;5032828;28;20054;-52
2024/02/18 01:37:22;;;;;;;10.63;7.50;;;9.00;86.60;;;10.73;59.64;99241.84;5032601;28;20044;-54
2024/02/18 01:39:50;;;;;;;10.00;7.60;;;8.90;86.60;;;10.71;59.20;99238.47;5032856;28;20041;-50
2024/02/18 01:42:18;;;;;;;10.00;7.13;;;8.90;86.40;;;10.70;59.35;99241.25;5032835;28;20044;-53
2024/02/18 01:44:46;;;;;;;11.33;7.57;;;8.90;86.70;;;10.68;59.36;99236.03;5032962;28;20048;-49
2024/02/18 01:47:13;;;;;;;11.47;8.03;;;8.90;86.70;;;10.68;59.45;99238.69;5032383;28;20045;-52
2024/02/18 01:49:41;;;;;;;11.27;7.53;;;8.90;86.60;;;10.62;59.25;99228.53;5033057;28;20042;-49
2024/02/18 01:52:11;;;;;;;10.47;8.00;;;8.80;86.50;;;10.57;59.64;99234.25;5013928;28;20056;-53
2024/02/18 01:54:39;;;;;;;9.97;7.33;;;8.70;87.20;;;10.54;59.36;99238.97;4998396;28;20060;-51
2024/02/18 01:57:07;;;;;;;9.33;7.57;;;8.70;87.40;;;10.52;59.80;99243.56;4990335;28;20041;-48
2024/02/18 01:59:36;;;;;;;9.97;7.83;;;8.70;87.20;;;10.49;59.66;99241.13;5015164;28;20044;-51
2024/02/18 02:02:04;;;;;;;10.30;7.37;;;8.60;87.20;;;10.45;59.39;99240.56;5032475;28;20041;-51
2024/02/18 02:04:31;;;;;;;13.77;8.13;;;8.60;87.10;;;10.41;59.42;99239.09;5014909;28;20038;-49
2024/02/18 02:07:02;;;;;;;11.60;8.07;;;8.50;87.10;;;10.35;59.66;99235.13;5032033;28;20053;-50
2024/02/18 02:09:30;;;;;;;11.37;7.37;;;8.50;87.70;;;10.34;59.71;99238.72;5032554;28;20045;-49
2024/02/18 02:11:58;;;;;;;10.00;7.13;;;8.50;87.70;;;10.30;59.32;99239.06;5032575;28;20053;-51
2024/02/18 02:14:26;;;;;;;11.90;7.47;;;8.40;86.90;;;10.21;59.61;99232.66;5032060;28;20044;-50
2024/02/18 02:16:53;;;;;;;10.27;7.30;;;8.30;87.80;;;10.15;59.59;99218.00;5014190;28;20278;-53
2024/02/18 02:19:22;;;;;;;10.67;6.33;;;8.20;88.00;;;10.11;59.73;99221.88;5032203;28;20048;-49
2024/02/18 02:21:50;;;;;;;8.03;6.40;;;8.20;88.00;;;10.09;59.37;99217.66;5013947;28;20050;-50
2024/02/18 02:24:18;;;;;;;13.77;6.93;;;8.20;87.90;;;10.05;59.58;99217.03;5031820;28;20049;-50
2024/02/18 02:26:49;;;;;;;16.17;7.63;;;8.20;88.10;;;10.03;59.60;99221.63;5031405;28;20041;-50
2024/02/18 02:29:17;;;;;;;14.97;8.23;;;8.20;88.00;;;10.00;59.83;99222.72;5032179;28;20052;-50
2024/02/18 02:31:45;;;;;;;9.80;7.03;;;8.10;87.90;;;9.99;60.00;99214.84;5031904;28;20511;-48
2024/02/18 02:34:14;;;;;;;12.17;8.03;;;8.10;88.10;;;9.96;59.91;99223.06;5031801;28;20053;-51
2024/02/18 02:36:41;;;;;;;14.93;8.27;;;8.10;88.20;;;9.97;60.03;99220.28;5031468;28;20502;-52
2024/02/18 02:39:11;;;;;;;11.20;9.10;;;8.10;88.20;;;9.96;59.87;99223.06;5023706;28;20034;-53
2024/02/18 02:41:39;;;;;;;13.63;8.83;;;8.10;88.10;;;9.89;59.80;99220.03;5031944;28;20045;-48
2024/02/18 02:44:08;;;;;;;11.00;8.03;;;8.00;87.80;;;9.85;59.85;99216.75;5031701;28;20038;-50
2024/02/18 02:46:35;;;;;;;10.07;7.63;;;7.90;88.80;;;9.85;60.27;99227.41;5031319;28;20045;-49
2024/02/18 02:49:03;;;;;;;10.60;7.87;;;8.00;88.80;;;9.87;60.14;99221.97;5031240;28;20053;-52
2024/02/18 02:51:31;;;;;;;11.47;7.40;;;8.00;88.30;;;9.86;60.14;99222.94;5031648;28;20045;-49
2024/02/18 02:53:58;;;;;;;11.73;7.57;;;8.00;88.30;;;9.85;60.01;99223.91;5031597;28;20050;-51
2024/02/18 02:56:26;;;;;;;11.03;7.73;;;8.00;88.30;;;9.84;60.12;99223.03;5030521;28;20045;-52
2024/02/18 02:58:53;;;;;;;10.10;6.70;;;8.00;88.60;;;9.84;60.32;99219.53;5031475;28;20053;-51
2024/02/18 03:01:21;;;;;;;9.83;6.40;;;8.00;88.50;;;9.82;60.38;99217.00;5031434;28;20048;-48
2024/02/18 03:03:49;;;;;;;10.80;6.93;;;8.00;88.60;;;9.84;60.35;99216.88;5031127;28;20478;-51
2024/02/18 03:06:16;;;;;;;19.50;7.37;;;7.90;88.60;;;9.83;60.43;99212.53;5031083;28;20037;-53
2024/02/18 03:08:44;;;;;;;10.77;6.93;;;7.90;88.60;;;9.82;60.48;99213.50;5031369;28;20048;-50
2024/02/18 03:11:12;;;;;;;11.50;7.73;;;7.90;89.00;;;9.81;60.36;99207.34;5031402;28;20042;-53
2024/02/18 03:13:40;;;;;;;11.23;7.47;;;7.90;89.10;;;9.79;60.43;99206.59;5031094;28;20414;-49
2024/02/18 03:16:07;;;;;;;9.60;7.33;;;7.90;88.70;;;9.80;60.33;99204.78;5012654;28;20494;-51
2024/02/18 03:18:35;;;;;;;9.80;7.83;;;7.90;88.70;;;9.76;60.11;99206.81;5031119;28;20041;-50
2024/02/18 03:21:03;;;;;;;9.73;7.40;;;7.90;89.10;;;9.74;60.47;99208.75;5031077;28;20041;-53
2024/02/18 03:23:32;;;;;;;10.40;8.03;;;7.90;89.00;;;9.72;60.28;99204.53;5031149;28;20060;-53
2024/02/18 03:26:00;;;;;;;8.80;6.87;;;7.80;89.10;;;9.71;60.34;99194.84;5030099;28;20510;-52
2024/02/18 03:28:27;;;;;;;9.23;6.70;;;7.80;89.40;;;9.71;60.35;99198.34;5030843;28;20041;-51
2024/02/18 03:30:55;;;;;;;12.60;7.07;;;7.90;89.00;;;9.67;60.17;99196.88;5030797;28;20050;-49
2024/02/18 03:33:23;;;;;;;11.73;6.87;;;7.80;88.90;;;9.64;60.57;99194.47;5030838;28;20524;-52
2024/02/18 03:35:51;;;;;;;8.83;7.33;;;7.70;89.60;;;9.61;60.67;99198.19;5030422;28;20498;-50
2024/02/18 03:38:18;;;;;;;8.30;5.90;;;7.70;89.80;;;9.62;60.61;99197.25;5030781;28;20065;-51
2024/02/18 03:40:46;;;;;;;11.33;7.07;;;7.70;89.70;;;9.63;60.54;99198.09;5030767;28;20413;-50
2024/02/18 03:43:14;;;;;;;9.93;7.33;;;7.80;90.00;;;9.66;60.61;99195.22;5013281;28;20044;-49
2024/02/18 03:45:42;;;;;;;10.73;7.10;;;7.80;89.30;;;9.66;60.59;99193.38;5030888;28;20038;-50
2024/02/18 03:48:09;;;;;;;10.67;8.47;;;7.80;89.20;;;9.66;60.79;99200.53;5029959;28;20518;-51
2024/02/18 03:50:37;;;;;;;11.33;7.97;;;7.80;89.20;;;9.70;60.71;99185.19;5030868;28;20521;-51
2024/02/18 03:53:04;;;;;;;10.27;7.07;;;7.90;89.00;;;9.73;60.71;99184.94;5030771;28;20041;-49
2024/02/18 03:55:32;;;;;;;10.77;6.60;;;7.90;89.00;;;9.72;60.63;99180.59;5030808;28;20494;-50
2024/02/18 03:57:59;;;;;;;8.10;6.67;;;7.90;88.50;;;9.72;60.76;99177.94;5029442;28;20072;-49
2024/02/18 04:00:27;;;;;;;9.07;6.57;;;7.90;89.00;;;9.75;60.59;99185.66;5030718;28;20045;-50
2024/02/18 04:02:55;;;;;;;10.03;6.47;;;7.90;88.80;;;9.74;60.48;99181.31;5030400;28;20087;-50
2024/02/18 04:05:23;;;;;;;12.80;7.40;;;7.80;88.30;;;9.71;60.86;99178.88;5030813;28;20038;-48
2024/02/18 04:07:50;;;;;;;9.67;6.60;;;7.80;89.50;;;9.74;60.86;99181.31;5030541;28;20060;-49
2024/02/18 04:10:18;;;;;;;9.60;7.07;;;7.90;89.80;;;9.80;60.66;99175.53;5022650;28;20049;-49
2024/02/18 04:12:47;;;;;;;9.50;6.87;;;8.00;89.10;;;9.80;60.61;99179.03;5030601;28;20041;-49
2024/02/18 04:15:15;;;;;;;8.90;6.30;;;8.00;89.00;;;9.83;60.89;99173.47;5030332;28;20399;-49
2024/02/18 04:17:43;;;;;;;10.40;6.37;;;8.00;89.00;;;9.84;60.76;99183.13;5029885;28;20038;-49
2024/02/18 04:20:11;;;;;;;9.77;6.47;;;8.10;88.70;;;9.84;61.02;99177.81;5013053;28;20045;-50
2024/02/18 04:22:39;;;;;;;9.37;6.77;;;8.00;88.90;;;9.86;60.64;99175.03;5030300;28;20038;-49
2024/02/18 04:25:07;;;;;;;11.77;6.67;;;8.00;88.90;;;9.84;60.74;99177.81;5012834;28;20041;-48
2024/02/18 04:27:34;;;;;;;9.90;7.03;;;7.90;89.70;;;9.81;61.06;99180.72;5012272;28;20486;-50
2024/02/18 04:30:03;;;;;;;10.10;6.40;;;7.90;90.00;;;9.82;60.93;99169.13;5030240;28;20060;-50
2024/02/18 04:32:31;;;;;;;10.40;7.13;;;8.00;90.40;;;9.86;60.95;99165.25;5030094;28;20046;-50
2024/02/18 04:34:59;;;;;;;12.13;8.20;;;8.00;90.10;;;9.90;60.95;99157.88;5030283;28;20530;-51
2024/02/18 04:37:27;;;;;;;9.13;6.93;;;8.10;89.70;;;9.92;61.22;99169.25;5029990;28;20044;-49
2024/02/18 04:39:56;;;;;;;9.80;7.67;;;8.10;89.60;;;9.95;60.93;99169.00;5016391;28;20042;-48
2024/02/18 04:42:24;;;;;;;10.30;7.27;;;8.10;89.40;;;9.94;61.08;99171.78;5041647;28;20049;-52
2024/02/18 04:44:51;;;;;;;15.60;8.87;;;8.10;89.90;;;9.94;61.24;99164.66;5034001;28;20052;-50
2024/02/18 04:47:19;;;;;;;13.93;7.53;;;8.10;90.00;;;9.95;61.25;99168.19;5033546;28;20090;-48
2024/02/18 04:49:46;;;;;;;11.50;8.10;;;8.10;90.10;;;9.97;61.25;99164.41;5016123;28;20053;-51
2024/02/18 04:52:14;;;;;;;12.60;7.43;;;8.10;89.70;;;9.97;60.97;99175.06;5033636;28;20041;-50
2024/02/18 04:54:42;;;;;;;13.97;9.60;;;8.10;89.90;;;9.98;61.21;99166.13;5030232;28;20052;-49
2024/02/18 04:57:09;;;;;;;13.03;7.93;;;8.20;89.50;;;9.99;60.71;99167.81;5033245;28;20042;-48
2024/02/18 04:59:37;;;;;;;12.43;7.83;;;8.20;88.70;;;9.96;61.12;99165.38;5033678;28;20033;-52
2024/02/18 05:02:08;;;;;;;10.37;6.83;;;8.10;89.40;;;9.95;60.77;99161.03;4999811;28;20057;-50
2024/02/18 05:04:35;;;;;;;13.57;7.83;;;8.10;89.50;;;9.94;60.78;99154.00;5033781;28;20140;-50
2024/02/18 05:07:04;;;;;;;11.37;7.07;;;8.00;89.20;;;9.95;60.76;99158.38;5032954;28;20045;-51
2024/02/18 05:09:31;;;;;;;10.57;8.27;;;8.10;89.70;;;9.95;60.93;99147.72;5016136;28;20047;-48
2024/02/18 05:11:59;;;;;;;13.57;8.50;;;8.10;89.20;;;9.95;60.99;99150.38;5016059;28;20069;-49
2024/02/18 05:14:27;;;;;;;10.93;8.27;;;8.10;89.10;;;9.95;61.10;99150.38;5015854;28;20052;-49
2024/02/18 05:16:57;;;;;;;10.60;7.90;;;8.10;89.00;;;9.93;60.86;99152.31;5033050;28;20049;-52
2024/02/18 05:19:28;;;;;;;12.07;8.67;;;8.10;89.50;;;9.93;61.01;99149.66;5039900;28;20057;-52
2024/02/18 05:21:56;;;;;;;12.77;8.70;;;8.10;89.10;;;9.90;60.75;99147.22;5033378;28;20042;-52
2024/02/18 05:24:24;;;;;;;13.37;8.53;;;8.00;89.10;;;9.86;60.90;99143.97;5015377;28;20048;-48
2024/02/18 05:26:51;;;;;;;14.50;9.27;;;8.00;89.10;;;9.83;60.52;99144.22;5015157;28;20060;-51
2024/02/18 05:29:19;;;;;;;13.30;7.97;;;7.90;89.10;;;9.79;60.60;99144.56;5033222;28;20828;-52
2024/02/18 05:31:47;;;;;;;11.83;8.33;;;7.90;89.40;;;9.76;60.88;99137.69;5015485;28;20054;-50
2024/02/18 05:34:15;;;;;;;10.90;8.23;;;7.80;89.60;;;9.70;60.80;99143.47;5033117;28;20449;-51
2024/02/18 05:36:43;;;;;;;12.30;9.33;;;7.70;89.70;;;9.64;60.70;99136.81;5032691;28;20048;-54
2024/02/18 05:39:12;;;;;;;11.07;8.33;;;7.70;90.10;;;9.60;60.78;99134.53;5033002;28;20053;-52
2024/02/18 05:41:40;;;;;;;11.60;8.13;;;7.60;90.30;;;9.56;60.73;99136.56;5033010;28;20045;-48
2024/02/18 05:44:09;;;;;;;11.77;8.33;;;7.60;91.20;;;9.50;61.12;99139.72;5032810;28;20056;-52
2024/02/18 05:46:37;;;;;;;13.17;9.20;;;7.50;91.20;;;9.49;61.24;99138.00;5032612;28;20517;-50
2024/02/18 05:49:04;;;;;;;13.73;8.73;;;7.60;90.90;;;9.47;61.07;99129.31;5032160;28;20053;-49
2024/02/18 05:51:32;;;;;;;12.63;8.93;;;7.50;90.70;;;9.45;61.06;99131.22;5032715;28;20065;-51
2024/02/18 05:54:00;;;;;;;12.53;8.40;;;7.50;90.50;;;9.42;61.11;99140.31;5015066;28;20057;-52
2024/02/18 05:56:28;;;;;;;11.87;8.57;;;7.50;90.50;;;9.38;61.25;99130.88;5024298;28;20057;-50
2024/02/18 05:58:55;;;;;;;13.17;9.43;;;7.50;90.70;;;9.38;61.39;99133.53;5031835;28;20042;-50
2024/02/18 06:01:23;;;;;;;13.47;8.47;;;7.50;90.90;;;9.40;61.15;99128.06;5032546;28;20060;-51
2024/02/18 06:03:51;;;;;;;14.53;8.37;;;7.50;90.50;;;9.37;61.21;99130.97;5032412;28;20494;-53
2024/02/18 06:06:19;;;;;;;16.87;9.33;;;7.50;90.70;;;9.36;61.00;99129.28;5014538;28;20422;-48
2024/02/18 06:08:46;;;;;;;13.07;9.43;;;7.40;91.20;;;9.33;61.14;99135.69;5032647;28;20049;-49
2024/02/18 06:11:14;;;;;;;14.93;9.10;;;7.40;90.40;;;9.30;61.02;99130.59;5015072;28;20415;-49
2024/02/18 06:13:46;;;;;;;11.57;7.63;;;7.40;89.80;;;9.26;61.31;99131.78;5032388;28;20056;-52
2024/02/18 06:16:14;;;;;;;14.93;9.83;;;7.30;90.70;;;9.23;61.50;99118.75;5032014;28;20045;-52
2024/02/18 06:18:42;;;;;;;15.87;8.90;;;7.30;91.20;;;9.26;61.36;99124.66;5032184;28;20041;-49
2024/02/18 06:21:20;;;;;;;13.00;9.43;;;7.30;91.10;;;9.26;61.40;99119.34;5038591;28;20052;-53
2024/02/18 06:23:48;;;;;;;12.63;8.80;;;7.40;90.90;;;9.25;61.47;99122.97;5032330;28;20418;-49
2024/02/18 06:26:16;;;;;;;13.63;9.00;;;7.30;91.30;;;9.23;61.33;99121.41;5014290;28;20406;-51
2024/02/18 06:28:44;;;;;;;16.47;10.53;;;7.30;91.10;;;9.23;61.46;99124.06;5032178;28;20051;-51
2024/02/18 06:31:11;;;;;;;16.60;11.67;;;7.30;91.70;;;9.24;61.53;99118.59;5032287;28;20046;-50
2024/02/18 06:33:42;;;;;;;16.67;11.20;;;7.30;91.40;;;9.25;61.38;99112.34;5037909;28;20092;-52
2024/02/18 06:36:10;;;;;;;13.10;9.93;;;7.30;91.60;;;9.26;62.20;99113.19;5013440;28;20057;-48
2024/02/18 06:38:44;;;;;;;13.60;9.17;;;7.40;92.00;;;9.30;61.86;99122.59;5031693;28;20044;-50
2024/02/18 06:41:11;;;;;;;12.10;9.00;;;7.40;91.80;;;9.31;61.91;99126.97;5031878;28;20528;-49
2024/02/18 06:43:39;;;;;;;12.17;8.50;;;7.40;91.90;;;9.34;61.77;99113.44;5031817;28;20033;-49
2024/02/18 06:46:07;;;;;;;14.40;8.73;;;7.50;92.30;;;9.41;61.98;99119.13;5031254;28;20044;-49
2024/02/18 06:48:39;;;;;;;10.70;7.53;;;7.60;91.80;;;9.48;61.84;99115.06;5031602;28;20037;-51
2024/02/18 06:51:07;;;;;;;12.33;8.50;;;7.70;91.20;;;9.52;62.16;99107.66;5031697;28;20053;-50
2024/02/18 06:53:34;;;;;;;11.23;8.47;;;7.70;91.30;;;9.56;61.86;99106.50;5031678;28;20045;-52
2024/02/18 06:56:03;;;;;;;11.43;7.47;;;7.80;91.40;;;9.60;61.90;99102.63;5031455;28;20422;-51
2024/02/18 06:58:31;;;;;;;11.50;8.33;;;7.80;91.20;;;9.62;62.15;99098.88;5012926;28;20045;-54
2024/02/18 07:00:58;;;;;;;15.87;8.90;;;7.90;91.30;;;9.65;61.96;99093.31;5030929;28;20045;-52
2024/02/18 07:03:26;;;;;;;14.10;8.57;;;7.90;91.20;;;9.69;62.06;99095.72;5031468;28;20041;-51
2024/02/18 07:05:54;;;;;;;11.87;9.10;;;8.00;90.80;;;9.70;62.17;99095.59;5013431;28;20052;-50
2024/02/18 07:08:22;;;;;;;13.07;8.93;;;8.10;90.80;;;9.75;62.24;99103.22;5013315;28;20053;-51
2024/02/18 07:10:50;;;;;;;12.80;9.37;;;8.10;90.50;;;9.77;62.04;99096.84;5031387;28;20052;-53
2024/02/18 07:13:18;;;;;;;13.20;7.83;;;8.20;89.80;;;9.79;62.23;99094.91;5012961;28;20494;-52
2024/02/18 07:15:46;;;;;;;12.87;9.30;;;8.30;89.40;;;9.81;61.82;99092.13;5031260;28;20494;-50
2024/02/18 07:18:13;;;;;;;14.40;9.47;;;8.30;89.00;;;9.84;61.94;99082.06;5031016;28;20049;-53
2024/02/18 07:20:41;;;;;;;13.30;9.40;;;8.30;89.30;;;9.90;61.86;99078.06;5031310;28;20041;-52
2024/02/18 07:23:09;;;;;;;12.13;8.57;;;8.30;89.10;;;9.97;62.25;99076.63;5013835;28;20056;-51
2024/02/18 07:25:40;;;;;;;15.00;8.60;;;8.40;89.20;;;10.06;61.99;99080.34;5023274;28;20418;-51
2024/02/18 07:28:07;;;;;;;13.33;9.50;;;8.50;89.00;;;10.14;62.07;99082.41;5012530;28;20046;-51
2024/02/18 07:30:35;;;;;;;14.20;8.60;;;8.60;88.60;;;10.19;61.95;99078.41;5013295;28;20081;-51
2024/02/18 07:33:03;;;;;;;13.03;8.77;;;8.70;88.40;;;10.26;62.14;99081.44;5031275;28;20434;-51
2024/02/18 07:35:31;;;;;;;12.63;8.67;;;8.70;88.00;;;10.29;61.92;99089.16;5013042;28;20052;-50
2024/02/18 07:37:59;;;;;;;14.80;8.97;;;8.70;87.80;;;10.32;61.77;99088.94;5030462;28;20045;-53
2024/02/18 07:40:26;;;;;;;14.27;9.17;;;8.70;87.90;;;10.34;61.49;99080.84;5012997;28;20049;-48
2024/02/18 07:42:54;;;;;;;14.83;8.37;;;8.80;87.40;;;10.35;61.74;99087.84;5027164;28;20046;-49
2024/02/18 07:45:22;;;;;;;12.13;7.77;;;8.80;86.90;;;10.37;61.88;99085.91;5011166;28;20053;-50
2024/02/18 07:47:49;;;;;;;15.50;8.20;;;8.80;87.20;;;10.42;61.92;99091.69;5028945;28;20113;-49
2024/02/18 07:50:17;;;;;;;12.90;9.03;;;8.80;87.70;;;10.43;61.44;99083.59;5030035;28;20046;-51
2024/02/18 07:52:44;;;;;;;13.07;8.40;;;8.80;87.80;;;10.48;61.92;99079.72;5029814;28;20042;-48
2024/02/18 07:55:12;;;;;;;16.37;8.33;;;8.80;87.70;;;10.52;61.85;99083.81;5029499;28;20395;-48
2024/02/18 07:57:41;;;;;;;12.30;8.57;;;8.80;87.60;;;10.56;61.53;99083.41;5020457;28;20037;-50
2024/02/18 08:00:10;;;;;;;16.73;8.97;;;8.90;87.80;;;10.60;61.54;99084.88;5029558;28;20049;-52
2024/02/18 08:02:37;;;;;;;12.57;10.13;;;8.90;87.80;;;10.64;61.52;99088.97;5012165;28;20529;-49
2024/02/18 08:05:05;;;;;;;14.03;9.37;;;8.90;87.30;;;10.70;61.14;99084.09;5029868;28;20048;-51
2024/02/18 08:07:33;;;;;;;12.43;8.83;;;9.00;87.20;;;10.72;61.59;99077.69;5029371;28;20061;-52
2024/02/18 08:10:01;;;;;;;13.23;8.50;;;9.00;87.10;;;10.72;61.40;99079.50;5029247;28;20045;-52
2024/02/18 08:12:29;;;;;;;12.73;8.33;;;9.00;87.10;;;10.71;60.82;99077.81;5031725;28;20057;-48
2024/02/18 08:14:58;;;;;;;13.50;9.30;;;9.00;86.90;;;10.71;61.42;99078.66;5033755;28;20041;-51
2024/02/18 08:17:25;;;;;;;12.67;9.00;;;9.00;87.40;;;10.75;60.99;99074.75;5015748;28;20044;-49
2024/02/18 08:19:53;;;;;;;11.67;9.17;;;9.00;87.50;;;10.80;61.12;99074.41;5015879;28;20525;-50
2024/02/18 08:22:21;;;;;;;10.77;8.10;;;9.10;87.60;;;10.88;61.25;99069.25;5015220;28;20046;-51
2024/02/18 08:24:48;;;;;;;13.63;8.50;;;9.20;87.30;;;10.93;61.41;99074.19;5033209;28;20045;-48
2024/02/18 08:27:16;;;;;;;15.70;9.83;;;9.30;87.10;;;11.01;61.35;99074.38;5033120;28;20189;-49
2024/02/18 08:29:43;;;;;;;14.80;8.90;;;9.40;86.60;;;11.06;61.27;99066.03;5015542;28;20041;-48
2024/02/18 08:32:11;;;;;;;21.23;9.03;;;9.40;85.80;;;11.13;61.15;99061.88;5033135;28;20049;-50
2024/02/18 08:34:41;;;;;;;13.87;8.80;;;9.50;85.30;;;11.16;60.77;99062.44;5032521;28;20057;-48
2024/02/18 08:37:09;;;;;;;13.70;9.07;;;9.60;84.70;;;11.21;60.51;99052.25;5032719;28;20054;-52
2024/02/18 08:39:39;;;;;;;11.07;7.77;;;9.60;84.20;;;11.26;60.31;99051.00;5033171;28;20050;-49
2024/02/18 08:42:06;;;;;;;15.80;9.13;;;9.70;84.50;;;11.30;60.63;99042.63;5033258;28;20052;-52
2024/02/18 08:44:36;;;;;;;11.20;8.87;;;9.70;84.00;;;11.34;60.22;99044.03;5015559;28;20453;-48
2024/02/18 08:47:04;;;;;;;11.37;8.33;;;9.80;83.60;;;11.40;60.20;99053.34;5032765;28;20068;-48
2024/02/18 08:49:32;;;;;;;11.73;8.83;;;9.80;83.00;;;11.41;60.31;99047.00;5032514;28;20281;-48
2024/02/18 08:51:59;;;;;;;15.07;9.77;;;9.80;82.70;;;11.46;60.00;99043.94;5032983;28;20056;-48
2024/02/18 08:54:28;;;;;;;12.70;9.30;;;9.90;82.60;;;11.49;60.19;99044.53;5014663;28;20054;-49
2024/02/18 08:56:55;;;;;;;12.30;9.37;;;10.00;82.00;;;11.55;60.04;99043.97;5032473;28;20045;-50
2024/02/18 08:59:23;;;;;;;12.07;9.13;;;10.00;82.00;;;11.59;59.73;99037.44;5032627;28;20068;-50
2024/02/18 09:01:57;;;;;;;13.47;9.10;;;10.00;81.70;;;11.65;60.15;99036.06;5032290;28;20049;-50
2024/02/18 09:04:30;;;;;;;12.73;8.60;;;10.10;82.40;;;11.68;59.92;99026.94;5032629;28;20422;-48
2024/02/18 09:06:57;;;;;;;14.77;10.13;;;10.20;82.50;;;11.72;59.86;99023.84;5014795;28;20042;-48
2024/02/18 09:09:25;;;;;;;14.33;10.00;;;10.20;82.60;;;11.77;59.83;99020.78;5032729;28;20052;-52
2024/02/18 09:11:53;;;;;;;10.63;8.43;;;10.20;81.80;;;11.80;59.79;99017.84;5032506;28;20500;-51
2024/02/18 09:14:21;;;;;;;16.47;9.00;;;10.20;82.00;;;11.85;59.85;99014.78;5032116;28;20048;-51
2024/02/18 09:16:48;;;;;;;16.07;9.03;;;10.30;82.00;;;11.90;59.53;99018.72;5032049;28;20037;-48
2024/02/18 09:19:16;;;;;;;11.67;8.37;;;10.40;82.00;;;11.97;59.42;99021.72;5033430;28;20057;-47
2024/02/18 09:21:44;;;;;;;12.07;8.73;;;10.40;81.60;;;11.99;59.43;99015.25;5033174;28;20041;-48
2024/02/18 09:24:11;;;;;;;10.63;8.13;;;10.50;81.30;;;12.08;59.27;99012.75;5032210;28;20045;-48
2024/02/18 09:26:40;;;;;;;13.00;8.07;;;10.60;81.30;;;12.12;59.39;99015.00;5032770;28;20049;-48
2024/02/18 09:29:08;;;;;;;11.63;8.50;;;10.70;81.00;;;12.19;59.24;99009.94;5033092;28;20048;-47
2024/02/18 09:31:37;;;;;;;11.43;7.90;;;10.80;79.50;;;12.24;59.02;99004.22;5032853;28;20529;-48
2024/02/18 09:34:05;;;;;;;10.67;8.43;;;10.80;78.50;;;12.29;58.83;99010.84;5033443;28;20422;-47
2024/02/18 09:36:33;;;;;;;10.27;7.23;;;10.90;78.70;;;12.36;58.78;99003.94;5032583;28;20049;-50
2024/02/18 09:39:01;;;;;;;9.17;6.73;;;11.00;78.50;;;12.46;58.60;99008.44;5015040;28;20057;-49
2024/02/18 09:41:29;;;;;;;12.43;7.30;;;11.10;78.40;;;12.40;58.28;99007.16;5032967;28;20045;-50
2024/02/18 09:44:05;;;;;;;11.07;7.60;;;11.00;77.60;;;12.47;58.30;99002.97;5033015;28;20045;-48
2024/02/18 09:46:37;;;;;;;9.40;8.10;;;11.10;77.20;;;12.56;58.37;99007.47;5013874;28;20050;-48
2024/02/18 09:49:08;;;;;;;10.87;8.13;;;11.10;78.50;;;12.55;57.97;98997.75;5031766;28;20533;-47
2024/02/18 09:51:36;;;;;;;14.03;9.43;;;11.10;78.10;;;12.39;58.03;98989.47;5014828;28;20045;-51
2024/02/18 09:54:06;;;;;;;11.70;8.27;;;10.90;78.40;;;12.44;58.19;98973.03;5032758;28;20295;-47
2024/02/18 09:56:34;;;;;;;10.77;7.50;;;10.90;79.30;;;12.50;58.05;98975.97;5032013;28;20041;-50
2024/02/18 09:59:02;;;;;;;11.67;8.00;;;11.00;79.00;;;12.46;58.06;98979.91;5032421;28;20042;-52
2024/02/18 10:01:31;;;;;;;9.97;7.83;;;11.00;78.60;;;12.49;57.95;98979.63;5032210;28;20422;-50
2024/02/18 10:03:59;;;;;;;11.00;8.50;;;11.00;78.60;;;12.50;58.07;98977.78;5032581;28;20038;-49
2024/02/18 10:06:27;;;;;;;13.23;8.90;;;11.00;79.30;;;12.51;58.20;98985.66;5032282;28;20041;-52
2024/02/18 10:08:55;;;;;;;11.43;9.53;;;11.00;78.90;;;12.48;58.22;98982.44;5032323;28;20037;-50
2024/02/18 10:11:23;;;;;;;12.87;8.13;;;11.00;79.00;;;12.44;57.93;98983.72;5032463;28;20041;-50
2024/02/18 10:13:57;;;;;;;11.73;8.57;;;11.00;78.90;;;12.48;58.58;98975.25;5014705;28;20053;-50
2024/02/18 10:16:25;;;;;;;12.85;8.73;;;11.00;80.10;;;12.49;58.26;98970.78;5032031;28;20072;-52
2024/02/18 10:18:53;;;;;;;10.60;8.60;;;11.00;80.10;;;12.28;57.97;98966.41;5032204;28;20495;-49
2024/02/18 10:21:25;;;;;;;12.83;10.57;;;10.80;77.90;;;12.30;58.30;98958.25;5014634;28;20426;-50
2024/02/18 10:23:54;;;;;;;11.83;8.33;;;10.70;79.70;;;12.33;58.05;98963.31;5014928;28;20525;-53
2024/02/18 10:26:22;;;;;;;10.70;7.50;;;10.80;78.90;;;12.34;57.91;98957.84;5031765;28;20434;-51